createdAt,value
2023-12-30T00:02:21.714Z,100608.62
2023-12-30T00:05:26.423Z,100598.50
2023-12-30T00:08:28.914Z,100593.50
2023-12-30T00:11:31.721Z,100591.72
2023-12-30T00:14:34.149Z,100583.25
2023-12-30T00:17:37.162Z,100592.59
2023-12-30T00:20:39.734Z,100600.50
2023-12-30T00:23:46.344Z,100596.84
2023-12-30T00:26:49.116Z,100595.06
2023-12-30T00:29:52.080Z,100602.13
2023-12-30T00:32:54.551Z,100602.66
2023-12-30T00:35:58.258Z,100607.56
2023-12-30T00:39:00.711Z,100611.47
2023-12-30T00:42:03.554Z,100602.31
2023-12-30T00:45:06.862Z,100596.47
2023-12-30T00:48:09.610Z,100605.41
2023-12-30T00:51:12.180Z,100602.31
2023-12-30T00:54:15.028Z,100588.88
2023-12-30T00:57:17.504Z,100592.16
2023-12-30T01:00:20.220Z,100591.06
2023-12-30T01:03:22.732Z,100593.66
2023-12-30T01:06:25.627Z,100590.50
2023-12-30T01:09:28.070Z,100597.38
2023-12-30T01:12:30.972Z,100597.47
2023-12-30T01:15:34.218Z,100602.47
2023-12-30T01:18:37.112Z,100604.62
2023-12-30T01:21:39.597Z,100601.19
2023-12-30T01:24:42.292Z,100609.44
2023-12-30T01:27:44.868Z,100605.28
2023-12-30T01:30:48.129Z,100610.00
2023-12-30T01:33:50.890Z,100612.41
2023-12-30T01:36:55.823Z,100598.41
2023-12-30T01:39:58.323Z,100593.88
2023-12-30T01:43:04.453Z,100604.81
2023-12-30T01:46:10.456Z,100603.63
2023-12-30T01:49:14.057Z,100593.88
2023-12-30T01:52:17.125Z,100597.03
2023-12-30T01:55:20.803Z,100593.09
2023-12-30T01:58:24.680Z,100583.69
2023-12-30T02:01:28.454Z,100574.50
2023-12-30T02:04:32.018Z,100587.34
2023-12-30T02:07:34.810Z,100581.28
2023-12-30T02:10:38.025Z,100571.25
2023-12-30T02:13:44.113Z,100579.94
2023-12-30T02:16:47.042Z,100582.59
2023-12-30T02:19:51.886Z,100571.22
2023-12-30T02:22:55.982Z,100580.59
2023-12-30T02:25:58.551Z,100581.00
2023-12-30T02:29:01.302Z,100580.75
2023-12-30T02:32:03.742Z,100560.88
2023-12-30T02:35:06.833Z,100564.75
2023-12-30T02:38:09.970Z,100575.69
2023-12-30T02:41:12.745Z,100557.31
2023-12-30T02:44:20.231Z,100578.38
2023-12-30T02:47:23.181Z,100568.75
2023-12-30T02:50:25.683Z,100583.03
2023-12-30T02:53:28.366Z,100577.72
2023-12-30T02:56:30.786Z,100578.66
2023-12-30T02:59:33.968Z,100573.53
2023-12-30T03:02:37.648Z,100563.69
2023-12-30T03:05:40.655Z,100567.25
2023-12-30T03:08:43.099Z,100567.09
2023-12-30T03:11:46.402Z,100573.53
2023-12-30T03:14:48.875Z,100572.69
2023-12-30T03:17:51.798Z,100564.84
2023-12-30T03:20:54.322Z,100565.91
2023-12-30T03:23:57.124Z,100565.75
2023-12-30T03:26:59.657Z,100562.22
2023-12-30T03:30:02.487Z,100559.81
2023-12-30T03:33:05.399Z,100568.03
2023-12-30T03:36:08.944Z,100556.13
2023-12-30T03:39:11.464Z,100557.25
2023-12-30T03:42:14.263Z,100544.41
2023-12-30T03:45:16.810Z,100559.44
2023-12-30T03:48:19.966Z,100560.72
2023-12-30T03:51:22.464Z,100569.44
2023-12-30T03:54:25.272Z,100558.25
2023-12-30T03:57:27.842Z,100573.38
2023-12-30T04:00:30.645Z,100570.16
2023-12-30T04:03:33.382Z,100554.78
2023-12-30T04:06:36.001Z,100561.81
2023-12-30T04:09:38.806Z,100550.59
2023-12-30T04:12:41.261Z,100547.75
2023-12-30T04:15:44.007Z,100564.91
2023-12-30T04:18:46.535Z,100578.84
2023-12-30T04:21:49.860Z,100561.81
2023-12-30T04:24:54.250Z,100577.31
2023-12-30T04:27:58.048Z,100573.63
2023-12-30T04:31:01.282Z,100576.00
2023-12-30T04:34:04.694Z,100572.31
2023-12-30T04:37:07.193Z,100570.41
2023-12-30T04:40:10.296Z,100570.75
2023-12-30T04:43:13.109Z,100569.78
2023-12-30T04:46:16.084Z,100563.84
2023-12-30T04:49:18.617Z,100569.78
2023-12-30T04:52:21.800Z,100583.03
2023-12-30T04:55:24.984Z,100571.97
2023-12-30T04:58:27.742Z,100579.22
2023-12-30T05:01:32.478Z,100570.88
2023-12-30T05:04:35.637Z,100593.44
2023-12-30T05:07:38.146Z,100572.91
2023-12-30T05:10:40.956Z,100591.03
2023-12-30T05:13:44.754Z,100570.88
2023-12-30T05:16:47.917Z,100586.97
2023-12-30T05:19:50.467Z,100594.97
2023-12-30T05:22:53.363Z,100596.87
2023-12-30T05:25:55.744Z,100603.81
2023-12-30T05:28:59.760Z,100604.53
2023-12-30T05:32:05.236Z,100604.62
2023-12-30T05:35:08.423Z,100612.50
2023-12-30T05:38:13.740Z,100615.97
2023-12-30T05:41:16.745Z,100605.38
2023-12-30T05:44:19.160Z,100598.59
2023-12-30T05:47:21.881Z,100600.97
2023-12-30T05:50:24.325Z,100604.22
2023-12-30T05:53:29.628Z,100611.97
2023-12-30T05:56:32.043Z,100603.63
2023-12-30T05:59:36.371Z,100621.84
2023-12-30T06:02:38.893Z,100625.94
2023-12-30T06:05:44.176Z,100629.87
2023-12-30T06:08:48.482Z,100637.34
2023-12-30T06:11:51.246Z,100636.53
2023-12-30T06:14:56.333Z,100651.06
2023-12-30T06:17:59.487Z,100632.22
2023-12-30T06:21:03.239Z,100647.97
2023-12-30T06:24:06.461Z,100646.16
2023-12-30T06:27:08.892Z,100669.41
2023-12-30T06:30:12.006Z,100663.31
2023-12-30T06:33:14.462Z,100672.34
2023-12-30T06:36:22.664Z,100665.91
2023-12-30T06:39:25.153Z,100669.62
2023-12-30T06:42:27.870Z,100665.84
2023-12-30T06:45:30.505Z,100675.22
2023-12-30T06:48:33.282Z,100658.97
2023-12-30T06:55:52.565Z,100693.25
2023-12-30T06:58:55.503Z,100698.22
2023-12-30T07:01:58.006Z,100701.09
2023-12-30T07:05:01.096Z,100709.81
2023-12-30T07:08:03.717Z,100702.06
2023-12-30T07:11:06.377Z,100714.59
2023-12-30T07:14:08.814Z,100720.31
2023-12-30T07:17:12.087Z,100730.00
2023-12-30T07:20:14.638Z,100739.78
2023-12-30T07:23:17.356Z,100734.03
2023-12-30T07:26:20.033Z,100728.56
2023-12-30T07:29:22.797Z,100724.59
2023-12-30T07:32:25.265Z,100732.00
2023-12-30T07:35:28.589Z,100734.03
2023-12-30T07:38:32.142Z,100740.88
2023-12-30T07:41:35.084Z,100741.25
2023-12-30T07:44:39.669Z,100755.84
2023-12-30T07:47:42.529Z,100749.91
2023-12-30T07:50:45.134Z,100758.84
2023-12-30T07:53:48.595Z,100734.63
2023-12-30T07:56:51.453Z,100744.12
2023-12-30T07:59:54.237Z,100761.72
2023-12-30T08:02:56.718Z,100761.00
2023-12-30T08:05:59.553Z,100754.19
2023-12-30T08:09:02.061Z,100757.66
2023-12-30T08:12:05.901Z,100765.16
2023-12-30T08:15:10.470Z,100770.44
2023-12-30T08:18:13.216Z,100773.81
2023-12-30T08:21:16.059Z,100767.12
2023-12-30T08:24:20.547Z,100774.88
2023-12-30T08:27:23.184Z,100777.66
2023-12-30T08:30:26.975Z,100759.53
2023-12-30T08:33:29.752Z,100776.13
2023-12-30T08:36:32.591Z,100781.59
2023-12-30T08:39:38.573Z,100761.31
2023-12-30T08:42:45.497Z,100783.97
2023-12-30T08:45:48.025Z,100771.81
2023-12-30T08:48:50.948Z,100776.00
2023-12-30T08:51:53.520Z,100781.59
2023-12-30T08:54:57.280Z,100783.50
2023-12-30T08:58:01.049Z,100795.66
2023-12-30T09:01:04.117Z,100791.91
2023-12-30T09:04:06.843Z,100802.06
2023-12-30T09:07:10.167Z,100805.38
2023-12-30T09:10:13.065Z,100806.37
2023-12-30T09:13:15.743Z,100790.84
2023-12-30T09:16:18.645Z,100791.53
2023-12-30T09:19:21.613Z,100790.34
2023-12-30T09:22:24.198Z,100783.81
2023-12-30T09:25:27.063Z,100796.13
2023-12-30T09:28:31.931Z,100784.56
2023-12-30T09:31:35.008Z,100788.34
2023-12-30T09:34:42.062Z,100795.03
2023-12-30T09:37:46.987Z,100783.78
2023-12-30T09:40:53.594Z,100777.19
2023-12-30T09:44:00.147Z,100790.19
2023-12-30T09:47:09.163Z,100777.97
2023-12-30T09:50:12.334Z,100786.66
2023-12-30T09:53:15.044Z,100782.94
2023-12-30T09:56:19.732Z,100785.31
2023-12-30T09:59:22.728Z,100787.69
2023-12-30T10:02:26.154Z,100790.38
2023-12-30T10:05:29.014Z,100789.97
2023-12-30T10:08:32.141Z,100771.66
2023-12-30T10:11:36.403Z,100784.50
2023-12-30T10:14:39.124Z,100774.34
2023-12-30T10:17:42.341Z,100774.22
2023-12-30T10:20:46.994Z,100763.56
2023-12-30T10:23:52.633Z,100770.00
2023-12-30T10:26:55.397Z,100755.78
2023-12-30T10:30:01.025Z,100747.53
2023-12-30T10:33:15.536Z,100738.63
2023-12-30T10:36:19.767Z,100743.84
2023-12-30T10:39:26.420Z,100748.16
2023-12-30T10:42:29.138Z,100746.16
2023-12-30T10:45:32.269Z,100745.25
2023-12-30T10:48:38.742Z,100742.25
2023-12-30T10:51:42.192Z,100743.25
2023-12-30T10:58:03.338Z,100733.53
2023-12-30T11:01:06.758Z,100722.03
2023-12-30T11:04:13.928Z,100724.31
2023-12-30T11:07:21.895Z,100712.81
2023-12-30T11:10:24.378Z,100709.22
2023-12-30T11:13:27.162Z,100715.06
2023-12-30T11:16:34.111Z,100716.72
2023-12-30T11:19:38.028Z,100712.28
2023-12-30T11:22:42.206Z,100712.34
2023-12-30T11:25:47.395Z,100699.09
2023-12-30T11:28:50.765Z,100696.09
2023-12-30T11:31:57.905Z,100700.00
2023-12-30T11:35:00.773Z,100679.00
2023-12-30T11:38:10.214Z,100685.47
2023-12-30T11:41:12.762Z,100686.31
2023-12-30T11:44:16.191Z,100684.41
2023-12-30T11:47:22.893Z,100675.28
2023-12-30T11:50:25.651Z,100674.44
2023-12-30T11:53:33.627Z,100668.38
2023-12-30T11:56:36.788Z,100672.28
2023-12-30T11:59:39.540Z,100670.31
2023-12-30T12:02:42.405Z,100664.50
2023-12-30T12:05:45.239Z,100653.44
2023-12-30T12:08:48.753Z,100668.91
2023-12-30T12:11:51.980Z,100662.78
2023-12-30T12:14:55.029Z,100664.47
2023-12-30T12:17:57.980Z,100663.87
2023-12-30T12:21:05.602Z,100658.34
2023-12-30T12:24:08.588Z,100672.09
2023-12-30T12:27:11.051Z,100673.16
2023-12-30T12:30:14.183Z,100655.31
2023-12-30T12:33:20.009Z,100665.84
2023-12-30T12:36:23.317Z,100669.78
2023-12-30T12:39:25.833Z,100662.53
2023-12-30T12:42:31.081Z,100663.34
2023-12-30T12:45:33.934Z,100661.91
2023-12-30T12:48:39.262Z,100671.84
2023-12-30T12:51:45.240Z,100669.88
2023-12-30T12:54:48.605Z,100668.94
2023-12-30T12:57:51.201Z,100653.94
2023-12-30T13:00:54.424Z,100660.50
2023-12-30T13:03:59.398Z,100673.56
2023-12-30T13:07:02.214Z,100657.06
2023-12-30T13:10:28.307Z,100662.69
2023-12-30T13:13:31.197Z,100665.44
2023-12-30T13:16:33.757Z,100654.37
2023-12-30T13:19:37.898Z,100676.59
2023-12-30T13:22:40.424Z,100676.19
2023-12-30T13:25:44.315Z,100670.19
2023-12-30T13:28:47.530Z,100667.16
2023-12-30T13:31:54.485Z,100669.91
2023-12-30T13:34:58.529Z,100671.56
2023-12-30T13:38:02.515Z,100674.97
2023-12-30T13:41:05.331Z,100672.78
2023-12-30T13:44:13.031Z,100677.22
2023-12-30T13:47:24.748Z,100673.03
2023-12-30T13:50:32.758Z,100680.06
2023-12-30T13:53:35.317Z,100676.28
2023-12-30T13:56:43.114Z,100681.31
2023-12-30T13:59:46.237Z,100675.97
2023-12-30T14:02:54.038Z,100693.28
2023-12-30T14:05:57.866Z,100693.63
2023-12-30T14:09:14.261Z,100697.25
2023-12-30T14:12:19.245Z,100694.22
2023-12-30T14:15:21.709Z,100706.44
2023-12-30T14:18:24.983Z,100700.38
2023-12-30T14:21:27.708Z,100700.69
2023-12-30T14:24:32.849Z,100700.97
2023-12-30T14:27:37.082Z,100705.72
2023-12-30T14:30:40.615Z,100693.78
2023-12-30T14:33:43.714Z,100700.47
2023-12-30T14:36:46.527Z,100698.81
2023-12-30T14:39:49.345Z,100702.72
2023-12-30T14:42:52.418Z,100694.97
2023-12-30T14:45:55.166Z,100692.19
2023-12-30T14:48:59.446Z,100691.34
2023-12-30T14:52:02.303Z,100712.44
2023-12-30T14:55:10.668Z,100716.59
2023-12-30T14:58:13.127Z,100709.38
2023-12-30T15:01:17.126Z,100712.41
2023-12-30T15:04:19.669Z,100709.94
2023-12-30T15:07:22.614Z,100718.78
2023-12-30T15:10:25.805Z,100723.22
2023-12-30T15:13:28.641Z,100731.84
2023-12-30T15:16:31.296Z,100727.12
2023-12-30T15:19:34.085Z,100731.56
2023-12-30T15:22:37.979Z,100733.22
2023-12-30T15:25:43.581Z,100730.44
2023-12-30T15:28:46.047Z,100736.25
2023-12-30T15:31:50.360Z,100731.00
2023-12-30T15:34:53.092Z,100742.06
2023-12-30T15:37:56.270Z,100732.88
2023-12-30T15:40:59.605Z,100740.97
2023-12-30T15:44:02.499Z,100746.50
2023-12-30T15:47:11.301Z,100745.09
2023-12-30T15:50:14.086Z,100741.19
2023-12-30T15:53:18.845Z,100754.75
2023-12-30T15:56:21.502Z,100757.22
2023-12-30T15:59:23.876Z,100753.62
2023-12-30T16:02:26.620Z,100745.87
2023-12-30T16:05:29.450Z,100748.59
2023-12-30T16:08:31.884Z,100752.47
2023-12-30T16:11:35.326Z,100752.19
2023-12-30T16:14:38.626Z,100745.22
2023-12-30T16:17:43.091Z,100751.31
2023-12-30T16:20:46.324Z,100755.97
2023-12-30T16:23:49.194Z,100753.22
2023-12-30T16:26:51.670Z,100756.25
2023-12-30T16:29:54.367Z,100751.31
2023-12-30T16:32:56.916Z,100757.06
2023-12-30T16:35:59.738Z,100760.66
2023-12-30T16:39:02.825Z,100744.00
2023-12-30T16:42:05.676Z,100766.44
2023-12-30T16:45:08.535Z,100756.19
2023-12-30T16:48:11.552Z,100758.94
2023-12-30T16:51:14.775Z,100754.50
2023-12-30T16:54:17.428Z,100751.47
2023-12-30T16:57:19.914Z,100757.00
2023-12-30T17:00:22.827Z,100743.41
2023-12-30T17:03:25.224Z,100760.84
2023-12-30T17:06:27.984Z,100755.59
2023-12-30T17:09:30.462Z,100760.34
2023-12-30T17:12:33.249Z,100757.25
2023-12-30T17:15:35.946Z,100759.19
2023-12-30T17:18:38.789Z,100756.22
2023-12-30T17:21:41.398Z,100746.53
2023-12-30T17:24:44.062Z,100748.16
2023-12-30T17:27:46.634Z,100759.81
2023-12-30T17:30:49.774Z,100772.81
2023-12-30T17:33:52.359Z,100769.47
2023-12-30T17:36:55.258Z,100763.94
2023-12-30T17:39:57.655Z,100765.87
2023-12-30T17:43:00.727Z,100765.28
2023-12-30T17:46:04.050Z,100762.75
2023-12-30T17:49:06.866Z,100763.84
2023-12-30T17:52:09.448Z,100774.88
2023-12-30T17:55:12.263Z,100783.44
2023-12-30T17:58:15.075Z,100768.22
2023-12-30T18:01:19.487Z,100779.81
2023-12-30T18:04:22.567Z,100772.63
2023-12-30T18:07:25.143Z,100780.13
2023-12-30T18:10:28.123Z,100797.81
2023-12-30T18:13:30.800Z,100791.72
2023-12-30T18:16:33.686Z,100800.28
2023-12-30T18:19:36.407Z,100796.41
2023-12-30T18:22:41.549Z,100791.66
2023-12-30T18:25:44.160Z,100806.56
2023-12-30T18:28:47.153Z,100792.69
2023-12-30T18:31:49.688Z,100795.19
2023-12-30T18:34:53.106Z,100791.25
2023-12-30T18:37:55.567Z,100795.72
2023-12-30T18:40:58.270Z,100796.28
2023-12-30T18:44:01.270Z,100789.59
2023-12-30T18:47:04.139Z,100799.25
2023-12-30T18:50:06.905Z,100802.28
2023-12-30T18:53:09.901Z,100803.09
2023-12-30T18:56:12.343Z,100789.00
2023-12-30T18:59:15.168Z,100785.69
2023-12-30T19:02:17.936Z,100789.00
2023-12-30T19:05:20.882Z,100793.37
2023-12-30T19:08:23.360Z,100793.94
2023-12-30T19:11:26.094Z,100801.62
2023-12-30T19:14:28.674Z,100796.63
2023-12-30T19:17:31.523Z,100798.84
2023-12-30T19:20:34.069Z,100798.00
2023-12-30T19:23:36.886Z,100793.81
2023-12-30T19:26:41.947Z,100791.03
2023-12-30T19:29:44.700Z,100796.81
2023-12-30T19:32:47.088Z,100786.81
2023-12-30T19:35:50.214Z,100803.19
2023-12-30T19:38:54.574Z,100811.75
2023-12-30T19:41:57.390Z,100810.84
2023-12-30T19:45:00.130Z,100799.53
2023-12-30T19:48:03.227Z,100810.56
2023-12-30T19:51:05.776Z,100811.34
2023-12-30T19:54:08.401Z,100806.87
2023-12-30T19:57:11.118Z,100805.50
2023-12-30T20:00:14.750Z,100805.22
2023-12-30T20:03:19.240Z,100801.00
2023-12-30T20:06:21.748Z,100787.09
2023-12-30T20:09:24.656Z,100800.13
2023-12-30T20:12:27.201Z,100792.66
2023-12-30T20:15:29.915Z,100798.78
2023-12-30T20:18:32.395Z,100793.13
2023-12-30T20:21:35.527Z,100801.75
2023-12-30T20:24:37.944Z,100800.34
2023-12-30T20:27:42.210Z,100796.50
2023-12-30T20:30:44.740Z,100800.59
2023-12-30T20:33:48.215Z,100788.41
2023-12-30T20:36:53.764Z,100789.50
2023-12-30T20:39:56.418Z,100785.09
2023-12-30T20:42:59.401Z,100786.69
2023-12-30T20:46:02.107Z,100785.59
2023-12-30T20:49:07.299Z,100788.88
2023-12-30T20:52:10.301Z,100793.56
2023-12-30T20:55:15.229Z,100787.16
2023-12-30T20:58:18.843Z,100788.25
2023-12-30T21:01:22.214Z,100790.19
2023-12-30T21:04:25.098Z,100789.34
2023-12-30T21:07:27.703Z,100787.16
2023-12-30T21:10:30.575Z,100770.81
2023-12-30T21:13:33.066Z,100785.22
2023-12-30T21:16:36.746Z,100791.84
2023-12-30T21:19:39.486Z,100794.88
2023-12-30T21:22:42.264Z,100795.97
2023-12-30T21:25:49.748Z,100777.94
2023-12-30T21:28:52.633Z,100774.06
2023-12-30T21:31:56.276Z,100771.59
2023-12-30T21:34:59.061Z,100779.59
2023-12-30T21:38:01.564Z,100790.69
2023-12-30T21:41:07.309Z,100792.09
2023-12-30T21:44:09.702Z,100799.78
2023-12-30T21:47:12.552Z,100790.44
2023-12-30T21:50:15.305Z,100794.28
2023-12-30T21:53:18.088Z,100782.34
2023-12-30T21:56:20.600Z,100790.31
2023-12-30T21:59:23.308Z,100786.34
2023-12-30T22:02:25.760Z,100772.75
2023-12-30T22:05:28.951Z,100797.16
2023-12-30T22:08:31.890Z,100788.00
2023-12-30T22:11:34.615Z,100797.06
2023-12-30T22:14:37.335Z,100792.03
2023-12-30T22:17:40.106Z,100787.47
2023-12-30T22:20:42.661Z,100766.63
2023-12-30T22:23:46.078Z,100772.34
2023-12-30T22:26:49.168Z,100773.69
2023-12-30T22:29:51.864Z,100782.28
2023-12-30T22:32:54.303Z,100768.09
2023-12-30T22:35:57.033Z,100770.94
2023-12-30T22:38:59.565Z,100770.09
2023-12-30T22:42:02.367Z,100771.69
2023-12-30T22:45:06.476Z,100762.66
2023-12-30T22:48:09.309Z,100749.91
2023-12-30T22:51:12.464Z,100757.91
2023-12-30T22:54:16.342Z,100759.91
2023-12-30T22:57:18.900Z,100744.34
2023-12-30T23:00:28.267Z,100752.66
2023-12-30T23:03:30.771Z,100759.34
2023-12-30T23:06:33.506Z,100762.66
2023-12-30T23:09:35.969Z,100766.56
2023-12-30T23:12:39.492Z,100762.22
2023-12-30T23:15:41.894Z,100746.97
2023-12-30T23:18:44.799Z,100752.72
2023-12-30T23:21:47.201Z,100759.41
2023-12-30T23:24:50.889Z,100762.41
2023-12-30T23:27:53.214Z,100759.06
2023-12-30T23:30:56.382Z,100765.34
2023-12-30T23:33:59.329Z,100764.72
2023-12-30T23:37:02.112Z,100770.47
2023-12-30T23:40:07.623Z,100772.66
2023-12-30T23:43:11.635Z,100750.09
2023-12-30T23:46:14.178Z,100752.44
2023-12-30T23:49:16.960Z,100749.53
2023-12-30T23:52:19.360Z,100757.22
2023-12-30T23:55:22.142Z,100757.88
2023-12-30T23:58:24.836Z,100742.06
